createdAt,value
2023-02-11T00:01:51.673Z,100537.63
2023-02-11T00:04:21.315Z,100554.31
2023-02-11T00:06:49.579Z,100546.13
2023-02-11T00:09:17.892Z,100552.19
2023-02-11T00:11:46.258Z,100552.22
2023-02-11T00:14:14.650Z,100553.75
2023-02-11T00:16:43.023Z,100549.44
2023-02-11T00:19:11.416Z,100549.84
2023-02-11T00:21:43.495Z,100538.22
2023-02-11T00:24:11.805Z,100540.91
2023-02-11T00:26:40.133Z,100553.19
2023-02-11T00:29:08.615Z,100545.28
2023-02-11T00:31:39.579Z,100534.09
2023-02-11T00:34:08.014Z,100555.59
2023-02-11T00:36:36.416Z,100554.72
2023-02-11T00:39:08.893Z,100548.38
2023-02-11T00:41:37.473Z,100552.00
2023-02-11T00:44:06.238Z,100557.78
2023-02-11T00:46:36.859Z,100556.94
2023-02-11T00:49:05.139Z,100555.75
2023-02-11T00:51:33.530Z,100556.81
2023-02-11T00:54:03.894Z,100543.31
2023-02-11T00:56:33.978Z,100541.41
2023-02-11T00:59:02.304Z,100538.56
2023-02-11T01:01:30.666Z,100531.47
2023-02-11T01:03:59.007Z,100526.47
2023-02-11T01:06:27.346Z,100529.06
2023-02-11T01:08:55.919Z,100538.22
2023-02-11T01:11:24.193Z,100530.69
2023-02-11T01:13:54.170Z,100523.56
2023-02-11T01:16:23.414Z,100520.50
2023-02-11T01:18:53.402Z,100520.41
2023-02-11T01:21:21.720Z,100511.06
2023-02-11T01:23:51.965Z,100502.22
2023-02-11T01:26:20.532Z,100503.38
2023-02-11T01:28:48.926Z,100509.53
2023-02-11T01:31:18.739Z,100503.78
2023-02-11T01:33:47.175Z,100507.50
2023-02-11T01:36:15.525Z,100495.44
2023-02-11T01:38:44.589Z,100507.06
2023-02-11T01:41:15.693Z,100511.53
2023-02-11T01:43:45.719Z,100508.59
2023-02-11T01:46:27.132Z,100513.94
2023-02-11T01:48:58.370Z,100510.41
2023-02-11T01:51:32.511Z,100503.84
2023-02-11T01:54:20.740Z,100508.94
2023-02-11T01:57:10.512Z,100503.94
2023-02-11T01:59:47.794Z,100505.31
2023-02-11T02:02:22.521Z,100490.28
2023-02-11T02:04:54.804Z,100497.75
2023-02-11T02:07:29.835Z,100467.41
2023-02-11T02:10:04.112Z,100490.03
2023-02-11T02:12:32.489Z,100490.34
2023-02-11T02:15:25.692Z,100487.97
2023-02-11T02:18:01.905Z,100492.44
2023-02-11T02:20:56.987Z,100483.22
2023-02-11T02:23:59.603Z,100486.22
2023-02-11T02:27:03.607Z,100486.00
2023-02-11T02:30:03.619Z,100493.84
2023-02-11T02:32:48.267Z,100472.63
2023-02-11T02:35:27.026Z,100473.13
2023-02-11T02:38:00.694Z,100471.88
2023-02-11T02:40:33.411Z,100465.38
2023-02-11T02:43:03.930Z,100463.06
2023-02-11T02:45:32.260Z,100458.44
2023-02-11T02:48:01.981Z,100458.28
2023-02-11T02:50:33.790Z,100456.66
2023-02-11T02:53:21.466Z,100462.25
2023-02-11T02:56:05.388Z,100449.63
2023-02-11T02:59:22.966Z,100452.13
2023-02-11T03:02:02.588Z,100428.91
2023-02-11T03:04:40.488Z,100409.75
2023-02-11T03:07:18.980Z,100410.78
2023-02-11T03:09:52.922Z,100399.75
2023-02-11T03:12:23.137Z,100399.91
2023-02-11T03:14:53.065Z,100394.38
2023-02-11T03:17:22.974Z,100398.81
2023-02-11T03:19:53.001Z,100414.59
2023-02-11T03:22:27.515Z,100410.84
2023-02-11T03:24:57.317Z,100409.16
2023-02-11T03:27:30.078Z,100401.69
2023-02-11T03:30:06.367Z,100411.69
2023-02-11T03:32:39.940Z,100415.28
2023-02-11T03:35:16.000Z,100377.97
2023-02-11T03:37:49.824Z,100411.47
2023-02-11T03:40:21.993Z,100411.81
2023-02-11T03:42:54.603Z,100419.47
2023-02-11T03:45:25.066Z,100410.63
2023-02-11T03:47:57.856Z,100418.06
2023-02-11T03:50:29.931Z,100421.44
2023-02-11T03:52:59.619Z,100414.41
2023-02-11T03:55:30.242Z,100425.88
2023-02-11T03:57:58.585Z,100425.19
2023-02-11T04:00:31.154Z,100428.75
2023-02-11T04:02:59.492Z,100426.22
2023-02-11T04:05:29.276Z,100416.03
2023-02-11T04:07:57.624Z,100438.44
2023-02-11T04:10:26.168Z,100441.19
2023-02-11T04:12:54.457Z,100440.25
2023-02-11T04:15:25.049Z,100444.19
2023-02-11T04:17:53.474Z,100432.94
2023-02-11T04:20:21.979Z,100434.16
2023-02-11T04:22:51.664Z,100420.47
2023-02-11T04:25:20.077Z,100417.91
2023-02-11T04:27:48.709Z,100423.88
2023-02-11T04:30:17.131Z,100420.69
2023-02-11T04:32:47.717Z,100417.19
2023-02-11T04:35:16.037Z,100415.47
2023-02-11T04:37:44.286Z,100417.66
2023-02-11T04:40:14.153Z,100420.06
2023-02-11T04:42:42.477Z,100421.66
2023-02-11T04:45:11.012Z,100427.28
2023-02-11T04:47:39.294Z,100432.47
2023-02-11T04:50:07.936Z,100422.97
2023-02-11T04:52:36.292Z,100439.97
2023-02-11T04:55:04.806Z,100416.59
2023-02-11T04:57:34.521Z,100416.47
2023-02-11T05:00:02.898Z,100420.94
2023-02-11T05:02:31.234Z,100414.38
2023-02-11T05:04:59.517Z,100398.19
2023-02-11T05:07:27.991Z,100387.84
2023-02-11T05:09:56.265Z,100383.00
2023-02-11T05:12:24.754Z,100372.00
2023-02-11T05:14:54.438Z,100372.50
2023-02-11T05:17:22.775Z,100359.00
2023-02-11T05:19:51.095Z,100361.78
2023-02-11T05:22:19.760Z,100363.13
2023-02-11T05:24:48.036Z,100361.69
2023-02-11T05:27:16.331Z,100358.75
2023-02-11T05:29:44.579Z,100357.03
2023-02-11T05:32:16.340Z,100359.25
2023-02-11T05:34:44.830Z,100352.22
2023-02-11T05:37:15.374Z,100360.53
2023-02-11T05:39:43.714Z,100367.94
2023-02-11T05:42:12.052Z,100380.28
2023-02-11T05:44:40.896Z,100380.91
2023-02-11T05:47:09.313Z,100384.34
2023-02-11T05:49:38.937Z,100391.94
2023-02-11T05:52:07.218Z,100389.47
2023-02-11T05:54:35.563Z,100393.34
2023-02-11T05:57:03.929Z,100399.09
2023-02-11T05:59:32.225Z,100395.41
2023-02-11T06:02:00.503Z,100390.69
2023-02-11T06:04:28.744Z,100379.94
2023-02-11T06:06:58.391Z,100382.97
2023-02-11T06:09:27.054Z,100381.47
2023-02-11T06:11:55.374Z,100384.16
2023-02-11T06:14:23.803Z,100385.53
2023-02-11T06:16:52.099Z,100388.00
2023-02-11T06:19:20.430Z,100385.47
2023-02-11T06:21:48.766Z,100379.44
2023-02-11T06:24:38.311Z,100376.28
2023-02-11T06:27:07.158Z,100376.97
2023-02-11T06:29:35.549Z,100372.69
2023-02-11T06:32:04.448Z,100364.75
2023-02-11T06:34:33.196Z,100369.00
2023-02-11T06:37:01.619Z,100368.72
2023-02-11T06:39:31.414Z,100375.56
2023-02-11T06:42:00.020Z,100369.84
2023-02-11T06:44:28.442Z,100386.91
2023-02-11T06:46:56.729Z,100382.69
2023-02-11T06:49:25.087Z,100377.00
2023-02-11T06:51:55.796Z,100384.06
2023-02-11T06:54:24.255Z,100378.91
2023-02-11T06:56:53.994Z,100377.97
2023-02-11T06:59:22.389Z,100378.59
2023-02-11T07:01:51.099Z,100391.59
2023-02-11T07:04:19.507Z,100383.84
2023-02-11T07:06:47.846Z,100359.59
2023-02-11T07:09:16.325Z,100386.97
2023-02-11T07:11:44.669Z,100394.19
2023-02-11T07:14:14.494Z,100388.31
2023-02-11T07:16:42.892Z,100391.16
2023-02-11T07:19:11.596Z,100391.31
2023-02-11T07:21:40.176Z,100401.41
2023-02-11T07:24:11.041Z,100409.38
2023-02-11T07:26:39.869Z,100423.81
2023-02-11T07:29:08.263Z,100418.47
2023-02-11T07:31:37.985Z,100405.91
2023-02-11T07:34:06.303Z,100396.22
2023-02-11T07:36:34.589Z,100413.44
2023-02-11T07:39:02.962Z,100411.38
2023-02-11T07:41:31.282Z,100419.38
2023-02-11T07:43:59.617Z,100411.13
2023-02-11T07:46:28.751Z,100399.13
2023-02-11T07:48:58.559Z,100397.88
2023-02-11T07:51:28.882Z,100396.91
2023-02-11T07:53:59.345Z,100384.84
2023-02-11T07:56:28.721Z,100387.25
2023-02-11T07:59:00.212Z,100378.31
2023-02-11T08:01:29.217Z,100371.94
2023-02-11T08:04:00.493Z,100371.19
2023-02-11T08:06:32.272Z,100368.03
2023-02-11T08:09:05.984Z,100369.19
2023-02-11T08:11:34.692Z,100377.31
2023-02-11T08:14:03.101Z,100387.19
2023-02-11T08:16:33.154Z,100367.13
2023-02-11T08:19:07.983Z,100376.72
2023-02-11T08:21:36.366Z,100377.09
2023-02-11T08:24:05.365Z,100382.72
2023-02-11T08:26:35.499Z,100388.81
2023-02-11T08:29:08.585Z,100385.22
2023-02-11T08:31:38.800Z,100379.13
2023-02-11T08:34:09.962Z,100378.59
2023-02-11T08:36:39.938Z,100375.59
2023-02-11T08:39:19.329Z,100383.53
2023-02-11T08:41:49.789Z,100370.16
2023-02-11T08:44:18.966Z,100360.69
2023-02-11T08:46:47.972Z,100374.22
2023-02-11T08:49:18.214Z,100376.91
2023-02-11T08:51:47.103Z,100383.63
2023-02-11T08:54:16.448Z,100373.66
2023-02-11T08:56:45.175Z,100358.09
2023-02-11T08:59:17.678Z,100388.22
2023-02-11T09:01:47.178Z,100375.25
2023-02-11T09:04:17.285Z,100375.03
2023-02-11T09:06:46.019Z,100380.22
2023-02-11T09:09:16.266Z,100385.97
2023-02-11T09:11:46.109Z,100382.88
2023-02-11T09:14:18.009Z,100376.13
2023-02-11T09:16:46.465Z,100373.06
2023-02-11T09:19:15.333Z,100374.19
2023-02-11T09:21:45.207Z,100367.56
2023-02-11T09:24:13.551Z,100370.25
2023-02-11T09:26:44.577Z,100368.34
2023-02-11T09:29:13.158Z,100360.31
2023-02-11T09:31:42.077Z,100373.78
2023-02-11T09:34:11.902Z,100366.75
2023-02-11T09:36:42.840Z,100374.06
2023-02-11T09:39:15.124Z,100384.50
2023-02-11T09:42:00.200Z,100382.84
2023-02-11T09:44:30.692Z,100390.56
2023-02-11T09:47:01.734Z,100394.25
2023-02-11T09:49:38.051Z,100382.66
2023-02-11T09:52:09.406Z,100396.50
2023-02-11T09:54:50.668Z,100399.81
2023-02-11T09:57:28.308Z,100401.84
2023-02-11T09:59:58.395Z,100411.59
2023-02-11T10:02:37.956Z,100402.34
2023-02-11T10:05:19.872Z,100383.81
2023-02-11T10:07:57.083Z,100405.53
2023-02-11T10:10:45.174Z,100415.13
2023-02-11T10:13:45.312Z,100400.81
2023-02-11T10:16:29.605Z,100408.00
2023-02-11T10:19:14.718Z,100408.41
2023-02-11T10:21:52.884Z,100405.84
2023-02-11T10:24:21.813Z,100405.63
2023-02-11T10:26:53.384Z,100402.19
2023-02-11T10:29:36.070Z,100400.16
2023-02-11T10:32:08.564Z,100391.38
2023-02-11T10:34:42.067Z,100397.63
2023-02-11T10:37:13.999Z,100395.28
2023-02-11T10:39:42.686Z,100387.47
2023-02-11T10:42:14.884Z,100384.94
2023-02-11T10:44:49.932Z,100383.97
2023-02-11T10:47:22.160Z,100380.00
2023-02-11T10:49:50.911Z,100365.41
2023-02-11T10:52:24.124Z,100373.06
2023-02-11T10:55:01.966Z,100360.91
2023-02-11T10:57:36.467Z,100365.66
2023-02-11T11:00:24.536Z,100360.75
2023-02-11T11:02:56.151Z,100354.78
2023-02-11T11:05:30.724Z,100347.84
2023-02-11T11:08:01.481Z,100354.34
2023-02-11T11:10:43.205Z,100355.16
2023-02-11T11:13:28.017Z,100360.91
2023-02-11T11:16:10.237Z,100359.84
2023-02-11T11:18:39.388Z,100356.06
2023-02-11T11:21:13.644Z,100347.69
2023-02-11T11:23:49.417Z,100348.59
2023-02-11T11:26:18.992Z,100340.75
2023-02-11T11:28:59.899Z,100345.03
2023-02-11T11:31:31.547Z,100342.00
2023-02-11T11:34:02.665Z,100342.00
2023-02-11T11:36:37.625Z,100341.75
2023-02-11T11:39:21.940Z,100347.00
2023-02-11T11:41:52.517Z,100335.34
2023-02-11T11:44:31.847Z,100354.00
2023-02-11T11:47:26.333Z,100339.25
2023-02-11T11:50:18.520Z,100346.50
2023-02-11T11:52:55.944Z,100304.63
2023-02-11T11:55:28.613Z,100337.56
2023-02-11T11:57:56.996Z,100335.16
2023-02-11T12:00:34.997Z,100336.28
2023-02-11T12:03:36.270Z,100332.06
2023-02-11T12:06:18.025Z,100336.78
2023-02-11T12:08:58.087Z,100344.22
2023-02-11T12:11:36.039Z,100337.78
2023-02-11T12:14:18.324Z,100344.81
2023-02-11T12:16:58.215Z,100338.94
2023-02-11T12:19:56.179Z,100349.72
2023-02-11T12:22:35.164Z,100353.75
2023-02-11T12:25:22.711Z,100350.72
2023-02-11T12:28:01.411Z,100338.28
2023-02-11T12:30:45.505Z,100340.50
2023-02-11T12:33:23.977Z,100339.81
2023-02-11T12:36:00.813Z,100341.97
2023-02-11T12:38:47.864Z,100339.00
2023-02-11T12:41:51.583Z,100314.63
2023-02-11T12:44:30.611Z,100337.56
2023-02-11T12:47:10.131Z,100342.50
2023-02-11T12:49:50.777Z,100344.13
2023-02-11T12:52:32.554Z,100333.69
2023-02-11T12:55:05.958Z,100335.66
2023-02-11T12:57:37.668Z,100326.97
2023-02-11T13:00:14.305Z,100332.81
2023-02-11T13:02:51.031Z,100329.88
2023-02-11T13:05:27.128Z,100317.00
2023-02-11T13:07:59.699Z,100312.28
2023-02-11T13:10:32.896Z,100309.44
2023-02-11T13:13:18.697Z,100288.97
2023-02-11T13:15:52.161Z,100313.13
2023-02-11T13:18:48.271Z,100310.00
2023-02-11T13:22:01.416Z,100309.19
2023-02-11T13:24:37.964Z,100294.03
2023-02-11T13:27:17.069Z,100294.94
2023-02-11T13:30:19.981Z,100302.81
2023-02-11T13:33:19.773Z,100301.91
2023-02-11T13:36:10.749Z,100296.63
2023-02-11T13:38:40.792Z,100284.78
2023-02-11T13:41:21.106Z,100289.94
2023-02-11T13:44:00.255Z,100296.28
2023-02-11T13:46:49.767Z,100281.72
2023-02-11T13:49:24.291Z,100279.38
2023-02-11T13:51:54.413Z,100288.34
2023-02-11T13:54:36.682Z,100294.22
2023-02-11T13:57:26.374Z,100293.56
2023-02-11T13:59:56.681Z,100284.03
2023-02-11T14:02:46.386Z,100305.63
2023-02-11T14:05:40.230Z,100299.63
2023-02-11T14:08:33.465Z,100291.31
2023-02-11T14:11:08.368Z,100297.94
2023-02-11T14:13:38.285Z,100289.00
2023-02-11T14:16:09.368Z,100286.66
2023-02-11T14:18:40.013Z,100275.19
2023-02-11T14:21:14.171Z,100288.25
2023-02-11T14:23:43.046Z,100282.56
2023-02-11T14:26:35.081Z,100279.31
2023-02-11T14:29:14.088Z,100288.31
2023-02-11T14:31:46.351Z,100297.03
2023-02-11T14:34:34.799Z,100296.41
2023-02-11T14:37:16.033Z,100299.16
2023-02-11T14:39:58.362Z,100301.59
2023-02-11T14:42:31.023Z,100297.94
2023-02-11T14:45:05.526Z,100299.25
2023-02-11T14:47:41.312Z,100298.78
2023-02-11T14:50:18.469Z,100301.03
2023-02-11T14:52:47.398Z,100306.53
2023-02-11T14:55:24.728Z,100312.75
2023-02-11T14:58:08.716Z,100316.41
2023-02-11T15:00:37.163Z,100309.78
2023-02-11T15:03:05.505Z,100304.81
2023-02-11T15:05:33.900Z,100317.25
2023-02-11T15:08:07.898Z,100324.13
2023-02-11T15:10:43.872Z,100320.16
2023-02-11T15:13:20.858Z,100317.72
2023-02-11T15:15:54.126Z,100325.00
2023-02-11T15:18:25.140Z,100322.91
2023-02-11T15:20:53.979Z,100326.47
2023-02-11T15:23:25.664Z,100325.47
2023-02-11T15:25:56.183Z,100326.59
2023-02-11T15:28:28.781Z,100321.34
2023-02-11T15:30:59.469Z,100336.06
2023-02-11T15:33:30.127Z,100336.47
2023-02-11T15:35:59.444Z,100338.91
2023-02-11T15:38:29.754Z,100310.69
2023-02-11T15:41:00.790Z,100334.88
2023-02-11T15:43:44.482Z,100338.06
2023-02-11T15:46:17.242Z,100339.38
2023-02-11T15:48:48.500Z,100349.19
2023-02-11T15:51:22.861Z,100346.75
2023-02-11T15:54:01.712Z,100350.78
2023-02-11T15:56:33.040Z,100355.22
2023-02-11T15:59:13.880Z,100361.63
2023-02-11T16:01:58.335Z,100359.06
2023-02-11T16:04:28.802Z,100358.47
2023-02-11T16:06:57.804Z,100347.53
2023-02-11T16:09:33.482Z,100356.06
2023-02-11T16:12:04.584Z,100363.50
2023-02-11T16:14:39.814Z,100360.94
2023-02-11T16:17:13.373Z,100356.00
2023-02-11T16:19:45.635Z,100369.13
2023-02-11T16:22:20.028Z,100374.16
2023-02-11T16:24:51.037Z,100378.16
2023-02-11T16:27:24.824Z,100377.97
2023-02-11T16:29:54.643Z,100382.66
2023-02-11T16:32:25.821Z,100383.00
2023-02-11T16:34:57.912Z,100375.25
2023-02-11T16:37:27.032Z,100379.47
2023-02-11T16:39:55.970Z,100377.66
2023-02-11T16:42:24.474Z,100387.41
2023-02-11T16:44:54.198Z,100385.84
2023-02-11T16:47:27.593Z,100389.50
2023-02-11T16:50:00.235Z,100391.25
2023-02-11T16:52:31.309Z,100398.09
2023-02-11T16:55:05.126Z,100395.78
2023-02-11T16:57:33.767Z,100386.94
2023-02-11T17:00:10.042Z,100396.38
2023-02-11T17:03:00.638Z,100392.88
2023-02-11T17:05:54.305Z,100394.28
2023-02-11T17:08:29.966Z,100396.91
2023-02-11T17:10:58.491Z,100394.03
2023-02-11T17:13:26.885Z,100396.19
2023-02-11T17:15:58.749Z,100391.78
2023-02-11T17:18:29.256Z,100399.06
2023-02-11T17:21:01.361Z,100391.81
2023-02-11T17:23:32.488Z,100387.53
2023-02-11T17:26:00.866Z,100389.66
2023-02-11T17:28:32.982Z,100372.59
2023-02-11T17:31:08.628Z,100393.59
2023-02-11T17:33:37.775Z,100395.34
2023-02-11T17:36:07.615Z,100400.84
2023-02-11T17:38:36.676Z,100397.97
2023-02-11T17:41:14.823Z,100393.56
2023-02-11T17:43:43.402Z,100397.75
2023-02-11T17:46:14.198Z,100403.88
2023-02-11T17:48:42.657Z,100396.03
2023-02-11T17:51:24.889Z,100402.28
2023-02-11T17:53:54.154Z,100403.53
2023-02-11T17:56:22.582Z,100406.34
2023-02-11T17:59:04.375Z,100419.41
2023-02-11T18:01:35.352Z,100417.91
2023-02-11T18:04:04.303Z,100410.69
2023-02-11T18:06:33.790Z,100417.28
2023-02-11T18:09:16.729Z,100403.75
2023-02-11T18:11:45.114Z,100418.47
2023-02-11T18:14:13.642Z,100418.53
2023-02-11T18:16:45.112Z,100424.59
2023-02-11T18:19:14.028Z,100425.47
2023-02-11T18:21:42.458Z,100423.34
2023-02-11T18:24:10.892Z,100417.81
2023-02-11T18:26:39.296Z,100426.41
2023-02-11T18:29:07.822Z,100423.72
2023-02-11T18:31:36.896Z,100398.34
2023-02-11T18:34:08.351Z,100426.97
2023-02-11T18:36:36.758Z,100422.94
2023-02-11T18:39:05.860Z,100427.19
2023-02-11T18:41:34.767Z,100437.53
2023-02-11T18:44:04.502Z,100433.31
2023-02-11T18:46:35.240Z,100429.25
2023-02-11T18:49:06.705Z,100436.00
2023-02-11T18:51:36.455Z,100422.50
2023-02-11T18:54:05.064Z,100432.94
2023-02-11T18:56:33.385Z,100429.09
2023-02-11T18:59:02.490Z,100425.53
2023-02-11T19:01:33.661Z,100427.56
2023-02-11T19:04:06.256Z,100428.50
2023-02-11T19:06:37.826Z,100415.75
2023-02-11T19:09:09.749Z,100426.41
2023-02-11T19:11:50.325Z,100407.72
2023-02-11T19:14:22.745Z,100431.47
2023-02-11T19:16:54.316Z,100424.94
2023-02-11T19:19:26.885Z,100424.91
2023-02-11T19:21:57.596Z,100429.28
2023-02-11T19:24:26.897Z,100420.03
2023-02-11T19:26:58.332Z,100425.91
2023-02-11T19:29:27.472Z,100424.38
2023-02-11T19:31:56.400Z,100427.19
2023-02-11T19:34:25.268Z,100432.28
2023-02-11T19:36:54.346Z,100431.81
2023-02-11T19:39:24.807Z,100425.72
2023-02-11T19:42:03.498Z,100428.91
2023-02-11T19:44:32.023Z,100423.53
2023-02-11T19:47:01.119Z,100436.94
2023-02-11T19:49:31.431Z,100415.88
2023-02-11T19:51:59.732Z,100428.78
2023-02-11T19:54:30.456Z,100437.13
2023-02-11T19:56:59.704Z,100417.50
2023-02-11T19:59:30.393Z,100435.63
2023-02-11T20:02:01.688Z,100431.63
2023-02-11T20:04:32.057Z,100435.41
2023-02-11T20:07:02.516Z,100437.38
2023-02-11T20:09:32.275Z,100430.88
2023-02-11T20:12:03.872Z,100427.78
2023-02-11T20:14:33.530Z,100433.50
2023-02-11T20:17:01.883Z,100435.00
2023-02-11T20:19:30.642Z,100435.34
2023-02-11T20:22:01.646Z,100433.63
2023-02-11T20:24:29.970Z,100423.84
2023-02-11T20:26:59.643Z,100429.44
2023-02-11T20:29:31.744Z,100429.09
2023-02-11T20:32:00.365Z,100423.44
2023-02-11T20:34:29.398Z,100425.19
2023-02-11T20:36:57.915Z,100422.63
2023-02-11T20:39:27.031Z,100422.34
2023-02-11T20:41:56.533Z,100426.41
2023-02-11T20:44:33.094Z,100418.56
2023-02-11T20:47:01.421Z,100411.53
2023-02-11T20:49:29.820Z,100435.13
2023-02-11T20:51:58.502Z,100430.06
2023-02-11T20:54:26.998Z,100444.06
2023-02-11T20:56:56.153Z,100449.81
2023-02-11T20:59:25.154Z,100453.22
2023-02-11T21:01:57.055Z,100439.41
2023-02-11T21:04:27.978Z,100441.25
2023-02-11T21:06:59.942Z,100426.19
2023-02-11T21:09:30.238Z,100451.09
2023-02-11T21:11:59.182Z,100454.72
2023-02-11T21:14:31.419Z,100443.72
2023-02-11T21:17:02.437Z,100449.03
2023-02-11T21:19:39.986Z,100445.72
2023-02-11T21:22:08.488Z,100447.16
2023-02-11T21:24:36.921Z,100451.13
2023-02-11T21:27:06.863Z,100449.16
2023-02-11T21:29:43.007Z,100445.44
2023-02-11T21:32:19.015Z,100447.81
2023-02-11T21:34:47.535Z,100433.13
2023-02-11T21:37:15.871Z,100458.06
2023-02-11T21:39:44.182Z,100471.50
2023-02-11T21:42:12.732Z,100470.97
2023-02-11T21:44:41.199Z,100462.81
2023-02-11T21:47:11.998Z,100464.69
2023-02-11T21:49:43.983Z,100463.16
2023-02-11T21:52:12.579Z,100460.13
2023-02-11T21:54:40.912Z,100469.38
2023-02-11T21:57:09.281Z,100468.38
2023-02-11T22:13:02.279Z,100483.00
2023-02-11T22:15:30.738Z,100479.06
2023-02-11T22:17:59.129Z,100479.31
2023-02-11T22:20:27.666Z,100480.50
2023-02-11T22:22:56.057Z,100490.81
2023-02-11T22:25:24.361Z,100485.91
2023-02-11T22:27:52.720Z,100484.72
2023-02-11T22:30:22.871Z,100481.19
2023-02-11T22:32:51.433Z,100488.25
2023-02-11T22:35:19.763Z,100487.38
2023-02-11T22:37:48.226Z,100485.91
2023-02-11T22:40:16.816Z,100499.81
2023-02-11T22:42:45.126Z,100497.63
2023-02-11T22:45:13.662Z,100478.78
2023-02-11T22:47:43.388Z,100494.69
2023-02-11T22:50:12.347Z,100484.06
2023-02-11T22:52:40.808Z,100460.84
2023-02-11T22:55:09.654Z,100467.28
2023-02-11T22:57:38.081Z,100470.84
2023-02-11T23:00:09.866Z,100480.16
2023-02-11T23:02:38.458Z,100468.63
2023-02-11T23:05:08.403Z,100481.50
2023-02-11T23:07:36.819Z,100480.69
2023-02-11T23:10:05.794Z,100484.03
2023-02-11T23:12:34.248Z,100477.97
2023-02-11T23:15:04.966Z,100481.66
2023-02-11T23:17:33.617Z,100475.63
2023-02-11T23:20:02.253Z,100481.56
2023-02-11T23:22:32.612Z,100485.69
2023-02-11T23:25:01.103Z,100481.88
2023-02-11T23:27:29.433Z,100483.88
2023-02-11T23:29:57.985Z,100484.22
2023-02-11T23:32:26.593Z,100474.97
2023-02-11T23:34:54.948Z,100488.25
2023-02-11T23:37:23.415Z,100490.97
2023-02-11T23:39:53.164Z,100489.25
2023-02-11T23:42:21.500Z,100494.81
2023-02-11T23:44:49.804Z,100486.41
2023-02-11T23:47:18.138Z,100494.34
2023-02-11T23:49:46.525Z,100486.25
2023-02-11T23:52:15.321Z,100488.78
2023-02-11T23:54:45.499Z,100492.97
2023-02-11T23:57:15.150Z,100498.03
2023-02-11T23:59:43.438Z,100490.44
